sensor_id;sensor_type;location;lat;lon;timestamp;P1;durP1;ratioP1;P2;durP2;ratioP2
52692;SDS011;68218;51.012;-1.648;2023-07-24T00:02:23;11.90;;;11.20;;
52692;SDS011;68218;51.012;-1.648;2023-07-24T00:04:48;11.10;;;10.48;;
52692;SDS011;68218;51.012;-1.648;2023-07-24T00:07:14;11.40;;;10.70;;
52692;SDS011;68218;51.012;-1.648;2023-07-24T00:09:39;11.82;;;11.13;;
52692;SDS011;68218;51.012;-1.648;2023-07-24T00:12:04;11.25;;;10.45;;
52692;SDS011;68218;51.012;-1.648;2023-07-24T00:14:30;13.73;;;12.93;;
52692;SDS011;68218;51.012;-1.648;2023-07-24T00:16:56;13.27;;;12.45;;
52692;SDS011;68218;51.012;-1.648;2023-07-24T00:19:21;12.68;;;11.88;;
52692;SDS011;68218;51.012;-1.648;2023-07-24T00:21:46;12.27;;;11.57;;
52692;SDS011;68218;51.012;-1.648;2023-07-24T00:24:12;12.48;;;11.75;;
52692;SDS011;68218;51.012;-1.648;2023-07-24T00:26:37;12.15;;;11.45;;
52692;SDS011;68218;51.012;-1.648;2023-07-24T00:29:03;12.32;;;11.63;;
52692;SDS011;68218;51.012;-1.648;2023-07-24T00:31:28;13.00;;;12.27;;
52692;SDS011;68218;51.012;-1.648;2023-07-24T00:33:53;12.38;;;11.68;;
52692;SDS011;68218;51.012;-1.648;2023-07-24T00:36:19;12.30;;;11.60;;
52692;SDS011;68218;51.012;-1.648;2023-07-24T00:38:44;12.80;;;12.00;;
52692;SDS011;68218;51.012;-1.648;2023-07-24T00:41:09;11.05;;;10.40;;
52692;SDS011;68218;51.012;-1.648;2023-07-24T00:43:35;12.75;;;12.02;;
52692;SDS011;68218;51.012;-1.648;2023-07-24T00:46:00;12.85;;;12.07;;
52692;SDS011;68218;51.012;-1.648;2023-07-24T00:48:28;13.68;;;12.88;;
52692;SDS011;68218;51.012;-1.648;2023-07-24T00:50:54;11.57;;;10.88;;
52692;SDS011;68218;51.012;-1.648;2023-07-24T00:53:20;12.65;;;11.90;;
52692;SDS011;68218;51.012;-1.648;2023-07-24T00:55:46;11.23;;;10.52;;
52692;SDS011;68218;51.012;-1.648;2023-07-24T00:58:12;12.27;;;11.55;;
52692;SDS011;68218;51.012;-1.648;2023-07-24T01:00:38;12.07;;;11.38;;
52692;SDS011;68218;51.012;-1.648;2023-07-24T01:03:04;12.25;;;11.55;;
52692;SDS011;68218;51.012;-1.648;2023-07-24T01:05:30;12.88;;;12.13;;
52692;SDS011;68218;51.012;-1.648;2023-07-24T01:07:57;12.15;;;11.45;;
52692;SDS011;68218;51.012;-1.648;2023-07-24T01:10:22;12.75;;;11.95;;
52692;SDS011;68218;51.012;-1.648;2023-07-24T01:12:53;12.98;;;12.18;;
52692;SDS011;68218;51.012;-1.648;2023-07-24T01:15:45;13.02;;;12.23;;
52692;SDS011;68218;51.012;-1.648;2023-07-24T01:18:15;14.90;;;13.98;;
52692;SDS011;68218;51.012;-1.648;2023-07-24T01:20:49;12.68;;;11.98;;
52692;SDS011;68218;51.012;-1.648;2023-07-24T01:25:59;12.95;;;12.15;;
52692;SDS011;68218;51.012;-1.648;2023-07-24T01:28:27;12.63;;;11.90;;
52692;SDS011;68218;51.012;-1.648;2023-07-24T01:30:53;12.98;;;12.18;;
52692;SDS011;68218;51.012;-1.648;2023-07-24T01:33:19;11.77;;;11.07;;
52692;SDS011;68218;51.012;-1.648;2023-07-24T01:35:45;11.85;;;11.15;;
52692;SDS011;68218;51.012;-1.648;2023-07-24T01:38:15;13.27;;;12.50;;
52692;SDS011;68218;51.012;-1.648;2023-07-24T01:40:41;12.80;;;12.02;;
52692;SDS011;68218;51.012;-1.648;2023-07-24T01:43:08;12.10;;;11.40;;
52692;SDS011;68218;51.012;-1.648;2023-07-24T01:45:33;12.98;;;12.25;;
52692;SDS011;68218;51.012;-1.648;2023-07-24T01:48:00;14.15;;;13.35;;
52692;SDS011;68218;51.012;-1.648;2023-07-24T01:50:27;12.35;;;11.60;;
52692;SDS011;68218;51.012;-1.648;2023-07-24T01:52:52;12.32;;;11.52;;
52692;SDS011;68218;51.012;-1.648;2023-07-24T01:55:17;13.77;;;12.77;;
52692;SDS011;68218;51.012;-1.648;2023-07-24T01:57:43;12.45;;;11.73;;
52692;SDS011;68218;51.012;-1.648;2023-07-24T02:00:08;12.40;;;11.60;;
52692;SDS011;68218;51.012;-1.648;2023-07-24T02:02:34;13.05;;;12.25;;
52692;SDS011;68218;51.012;-1.648;2023-07-24T02:05:00;12.88;;;12.07;;
52692;SDS011;68218;51.012;-1.648;2023-07-24T02:07:25;12.32;;;11.63;;
52692;SDS011;68218;51.012;-1.648;2023-07-24T02:09:50;12.00;;;11.30;;
52692;SDS011;68218;51.012;-1.648;2023-07-24T02:12:16;12.25;;;11.55;;
52692;SDS011;68218;51.012;-1.648;2023-07-24T02:14:41;12.48;;;11.77;;
52692;SDS011;68218;51.012;-1.648;2023-07-24T02:17:06;13.73;;;12.77;;
52692;SDS011;68218;51.012;-1.648;2023-07-24T02:19:32;12.07;;;11.38;;
52692;SDS011;68218;51.012;-1.648;2023-07-24T02:21:57;12.35;;;11.63;;
52692;SDS011;68218;51.012;-1.648;2023-07-24T02:24:22;12.77;;;12.02;;
52692;SDS011;68218;51.012;-1.648;2023-07-24T02:26:48;11.93;;;11.23;;
52692;SDS011;68218;51.012;-1.648;2023-07-24T02:29:13;12.70;;;11.95;;
52692;SDS011;68218;51.012;-1.648;2023-07-24T02:31:39;12.50;;;11.80;;
52692;SDS011;68218;51.012;-1.648;2023-07-24T02:34:04;13.15;;;12.35;;
52692;SDS011;68218;51.012;-1.648;2023-07-24T02:36:30;11.48;;;10.77;;
52692;SDS011;68218;51.012;-1.648;2023-07-24T02:38:55;13.35;;;12.43;;
52692;SDS011;68218;51.012;-1.648;2023-07-24T02:41:20;12.23;;;11.52;;
52692;SDS011;68218;51.012;-1.648;2023-07-24T02:43:46;13.23;;;12.50;;
52692;SDS011;68218;51.012;-1.648;2023-07-24T02:46:11;15.20;;;14.30;;
52692;SDS011;68218;51.012;-1.648;2023-07-24T02:48:37;13.68;;;12.88;;
52692;SDS011;68218;51.012;-1.648;2023-07-24T02:51:03;14.75;;;13.85;;
52692;SDS011;68218;51.012;-1.648;2023-07-24T02:53:28;14.70;;;13.73;;
52692;SDS011;68218;51.012;-1.648;2023-07-24T02:55:54;14.98;;;13.98;;
52692;SDS011;68218;51.012;-1.648;2023-07-24T02:58:19;15.98;;;14.93;;
52692;SDS011;68218;51.012;-1.648;2023-07-24T03:00:44;16.40;;;15.30;;
52692;SDS011;68218;51.012;-1.648;2023-07-24T03:03:10;16.80;;;15.55;;
52692;SDS011;68218;51.012;-1.648;2023-07-24T03:05:35;15.40;;;14.20;;
52692;SDS011;68218;51.012;-1.648;2023-07-24T03:08:01;15.48;;;14.25;;
52692;SDS011;68218;51.012;-1.648;2023-07-24T03:10:26;14.38;;;13.38;;
52692;SDS011;68218;51.012;-1.648;2023-07-24T03:12:52;14.13;;;13.13;;
52692;SDS011;68218;51.012;-1.648;2023-07-24T03:15:18;15.45;;;14.05;;
52692;SDS011;68218;51.012;-1.648;2023-07-24T03:17:43;15.30;;;14.27;;
52692;SDS011;68218;51.012;-1.648;2023-07-24T03:20:09;15.48;;;14.38;;
52692;SDS011;68218;51.012;-1.648;2023-07-24T03:22:43;14.95;;;13.88;;
52692;SDS011;68218;51.012;-1.648;2023-07-24T03:25:08;15.68;;;14.38;;
52692;SDS011;68218;51.012;-1.648;2023-07-24T03:27:34;14.52;;;13.52;;
52692;SDS011;68218;51.012;-1.648;2023-07-24T03:29:59;14.75;;;13.75;;
52692;SDS011;68218;51.012;-1.648;2023-07-24T03:32:25;14.82;;;13.73;;
52692;SDS011;68218;51.012;-1.648;2023-07-24T03:34:50;14.85;;;13.82;;
52692;SDS011;68218;51.012;-1.648;2023-07-24T03:37:16;16.05;;;14.95;;
52692;SDS011;68218;51.012;-1.648;2023-07-24T03:39:41;14.77;;;13.77;;
52692;SDS011;68218;51.012;-1.648;2023-07-24T03:42:08;15.68;;;14.57;;
52692;SDS011;68218;51.012;-1.648;2023-07-24T03:44:34;15.18;;;13.98;;
52692;SDS011;68218;51.012;-1.648;2023-07-24T03:47:00;13.75;;;12.75;;
52692;SDS011;68218;51.012;-1.648;2023-07-24T03:49:25;15.57;;;14.48;;
52692;SDS011;68218;51.012;-1.648;2023-07-24T03:51:51;13.68;;;12.68;;
52692;SDS011;68218;51.012;-1.648;2023-07-24T03:54:16;13.80;;;12.80;;
52692;SDS011;68218;51.012;-1.648;2023-07-24T03:56:42;14.15;;;13.13;;
52692;SDS011;68218;51.012;-1.648;2023-07-24T03:59:07;12.73;;;11.82;;
52692;SDS011;68218;51.012;-1.648;2023-07-24T04:01:32;12.48;;;11.57;;
52692;SDS011;68218;51.012;-1.648;2023-07-24T04:03:58;13.50;;;12.50;;
52692;SDS011;68218;51.012;-1.648;2023-07-24T04:06:24;12.88;;;11.95;;
52692;SDS011;68218;51.012;-1.648;2023-07-24T04:08:49;13.20;;;12.27;;
52692;SDS011;68218;51.012;-1.648;2023-07-24T04:11:15;13.93;;;12.93;;
52692;SDS011;68218;51.012;-1.648;2023-07-24T04:13:40;15.52;;;14.43;;
52692;SDS011;68218;51.012;-1.648;2023-07-24T04:16:05;13.85;;;12.85;;
52692;SDS011;68218;51.012;-1.648;2023-07-24T04:18:31;12.77;;;11.82;;
52692;SDS011;68218;51.012;-1.648;2023-07-24T04:20:56;13.52;;;12.52;;
52692;SDS011;68218;51.012;-1.648;2023-07-24T04:23:22;13.65;;;12.65;;
52692;SDS011;68218;51.012;-1.648;2023-07-24T04:25:49;13.35;;;12.45;;
52692;SDS011;68218;51.012;-1.648;2023-07-24T04:28:15;14.55;;;13.55;;
52692;SDS011;68218;51.012;-1.648;2023-07-24T04:30:41;13.13;;;12.20;;
52692;SDS011;68218;51.012;-1.648;2023-07-24T04:33:06;13.18;;;12.27;;
52692;SDS011;68218;51.012;-1.648;2023-07-24T04:35:32;14.48;;;13.40;;
52692;SDS011;68218;51.012;-1.648;2023-07-24T04:37:57;12.68;;;11.75;;
52692;SDS011;68218;51.012;-1.648;2023-07-24T04:40:23;12.88;;;11.95;;
52692;SDS011;68218;51.012;-1.648;2023-07-24T04:42:49;13.05;;;12.07;;
52692;SDS011;68218;51.012;-1.648;2023-07-24T04:45:14;14.23;;;13.23;;
52692;SDS011;68218;51.012;-1.648;2023-07-24T04:47:40;14.15;;;13.13;;
52692;SDS011;68218;51.012;-1.648;2023-07-24T04:50:05;13.88;;;12.88;;
52692;SDS011;68218;51.012;-1.648;2023-07-24T04:52:31;15.95;;;14.65;;
52692;SDS011;68218;51.012;-1.648;2023-07-24T04:54:56;13.88;;;12.85;;
52692;SDS011;68218;51.012;-1.648;2023-07-24T04:57:22;13.40;;;12.30;;
52692;SDS011;68218;51.012;-1.648;2023-07-24T04:59:47;12.65;;;11.75;;
52692;SDS011;68218;51.012;-1.648;2023-07-24T05:02:13;13.77;;;12.77;;
52692;SDS011;68218;51.012;-1.648;2023-07-24T05:04:38;13.45;;;12.45;;
52692;SDS011;68218;51.012;-1.648;2023-07-24T05:07:04;14.43;;;13.40;;
52692;SDS011;68218;51.012;-1.648;2023-07-24T05:09:29;13.52;;;12.52;;
52692;SDS011;68218;51.012;-1.648;2023-07-24T05:11:54;13.05;;;12.05;;
52692;SDS011;68218;51.012;-1.648;2023-07-24T05:14:20;13.98;;;12.98;;
52692;SDS011;68218;51.012;-1.648;2023-07-24T05:16:45;13.93;;;12.93;;
52692;SDS011;68218;51.012;-1.648;2023-07-24T05:19:11;14.32;;;13.30;;
52692;SDS011;68218;51.012;-1.648;2023-07-24T05:21:36;13.35;;;12.35;;
52692;SDS011;68218;51.012;-1.648;2023-07-24T05:24:02;13.25;;;12.27;;
52692;SDS011;68218;51.012;-1.648;2023-07-24T05:26:27;13.48;;;12.48;;
52692;SDS011;68218;51.012;-1.648;2023-07-24T05:28:53;12.93;;;11.95;;
52692;SDS011;68218;51.012;-1.648;2023-07-24T05:31:18;12.73;;;11.82;;
52692;SDS011;68218;51.012;-1.648;2023-07-24T05:33:44;13.43;;;12.50;;
52692;SDS011;68218;51.012;-1.648;2023-07-24T05:36:09;11.43;;;10.63;;
52692;SDS011;68218;51.012;-1.648;2023-07-24T05:38:35;12.45;;;11.55;;
52692;SDS011;68218;51.012;-1.648;2023-07-24T05:41:03;13.75;;;12.80;;
52692;SDS011;68218;51.012;-1.648;2023-07-24T05:43:29;12.57;;;11.68;;
52692;SDS011;68218;51.012;-1.648;2023-07-24T05:45:55;12.30;;;11.40;;
52692;SDS011;68218;51.012;-1.648;2023-07-24T05:48:22;13.20;;;12.30;;
52692;SDS011;68218;51.012;-1.648;2023-07-24T05:50:47;12.65;;;11.75;;
52692;SDS011;68218;51.012;-1.648;2023-07-24T05:53:13;13.02;;;12.13;;
52692;SDS011;68218;51.012;-1.648;2023-07-24T05:55:39;11.63;;;10.82;;
52692;SDS011;68218;51.012;-1.648;2023-07-24T05:58:05;11.93;;;11.13;;
52692;SDS011;68218;51.012;-1.648;2023-07-24T06:00:30;11.32;;;10.52;;
52692;SDS011;68218;51.012;-1.648;2023-07-24T06:02:56;12.52;;;11.63;;
52692;SDS011;68218;51.012;-1.648;2023-07-24T06:05:21;12.30;;;11.40;;
52692;SDS011;68218;51.012;-1.648;2023-07-24T06:07:46;12.38;;;11.48;;
52692;SDS011;68218;51.012;-1.648;2023-07-24T06:10:12;11.32;;;10.52;;
52692;SDS011;68218;51.012;-1.648;2023-07-24T06:12:38;11.88;;;11.07;;
52692;SDS011;68218;51.012;-1.648;2023-07-24T06:15:04;11.93;;;11.13;;
52692;SDS011;68218;51.012;-1.648;2023-07-24T06:17:30;11.05;;;10.25;;
52692;SDS011;68218;51.012;-1.648;2023-07-24T06:19:56;11.30;;;10.50;;
52692;SDS011;68218;51.012;-1.648;2023-07-24T06:22:22;12.00;;;11.07;;
52692;SDS011;68218;51.012;-1.648;2023-07-24T06:24:47;12.98;;;12.07;;
52692;SDS011;68218;51.012;-1.648;2023-07-24T06:27:13;11.30;;;10.50;;
52692;SDS011;68218;51.012;-1.648;2023-07-24T06:29:38;11.93;;;11.02;;
52692;SDS011;68218;51.012;-1.648;2023-07-24T06:32:04;11.85;;;10.95;;
52692;SDS011;68218;51.012;-1.648;2023-07-24T06:34:30;12.45;;;11.55;;
52692;SDS011;68218;51.012;-1.648;2023-07-24T06:36:55;11.23;;;10.43;;
52692;SDS011;68218;51.012;-1.648;2023-07-24T06:39:20;12.10;;;11.30;;
52692;SDS011;68218;51.012;-1.648;2023-07-24T06:41:46;12.18;;;11.35;;
52692;SDS011;68218;51.012;-1.648;2023-07-24T06:44:11;11.02;;;10.25;;
52692;SDS011;68218;51.012;-1.648;2023-07-24T06:46:37;12.07;;;11.20;;
52692;SDS011;68218;51.012;-1.648;2023-07-24T06:49:02;12.02;;;11.20;;
52692;SDS011;68218;51.012;-1.648;2023-07-24T06:51:28;11.45;;;10.65;;
52692;SDS011;68218;51.012;-1.648;2023-07-24T06:53:54;11.57;;;10.77;;
52692;SDS011;68218;51.012;-1.648;2023-07-24T06:56:19;11.15;;;10.35;;
52692;SDS011;68218;51.012;-1.648;2023-07-24T06:58:45;11.93;;;11.05;;
52692;SDS011;68218;51.012;-1.648;2023-07-24T07:01:10;12.07;;;11.23;;
52692;SDS011;68218;51.012;-1.648;2023-07-24T07:03:35;12.23;;;11.32;;
52692;SDS011;68218;51.012;-1.648;2023-07-24T07:06:01;10.98;;;10.18;;
52692;SDS011;68218;51.012;-1.648;2023-07-24T07:08:27;10.52;;;9.73;;
52692;SDS011;68218;51.012;-1.648;2023-07-24T07:10:57;11.75;;;10.95;;
52692;SDS011;68218;51.012;-1.648;2023-07-24T07:13:23;12.55;;;11.65;;
52692;SDS011;68218;51.012;-1.648;2023-07-24T07:15:49;12.05;;;11.15;;
52692;SDS011;68218;51.012;-1.648;2023-07-24T07:18:14;12.85;;;11.93;;
52692;SDS011;68218;51.012;-1.648;2023-07-24T07:20:44;11.88;;;10.98;;
52692;SDS011;68218;51.012;-1.648;2023-07-24T07:23:13;11.95;;;11.05;;
52692;SDS011;68218;51.012;-1.648;2023-07-24T07:25:39;12.30;;;11.40;;
52692;SDS011;68218;51.012;-1.648;2023-07-24T07:28:05;11.98;;;11.07;;
52692;SDS011;68218;51.012;-1.648;2023-07-24T07:30:31;12.25;;;11.35;;
52692;SDS011;68218;51.012;-1.648;2023-07-24T07:32:56;14.07;;;13.07;;
52692;SDS011;68218;51.012;-1.648;2023-07-24T07:35:22;12.35;;;11.45;;
52692;SDS011;68218;51.012;-1.648;2023-07-24T07:37:47;12.60;;;11.70;;
52692;SDS011;68218;51.012;-1.648;2023-07-24T07:40:12;12.13;;;11.23;;
52692;SDS011;68218;51.012;-1.648;2023-07-24T07:42:38;12.25;;;11.35;;
52692;SDS011;68218;51.012;-1.648;2023-07-24T07:45:03;13.13;;;12.20;;
52692;SDS011;68218;51.012;-1.648;2023-07-24T07:47:29;12.82;;;11.90;;
52692;SDS011;68218;51.012;-1.648;2023-07-24T07:49:55;12.02;;;11.13;;
52692;SDS011;68218;51.012;-1.648;2023-07-24T07:52:20;13.52;;;12.52;;
52692;SDS011;68218;51.012;-1.648;2023-07-24T07:54:49;16.77;;;15.60;;
52692;SDS011;68218;51.012;-1.648;2023-07-24T07:57:15;19.27;;;17.88;;
52692;SDS011;68218;51.012;-1.648;2023-07-24T07:59:40;19.55;;;18.15;;
52692;SDS011;68218;51.012;-1.648;2023-07-24T08:02:06;16.98;;;15.77;;
52692;SDS011;68218;51.012;-1.648;2023-07-24T08:04:32;20.10;;;18.58;;
52692;SDS011;68218;51.012;-1.648;2023-07-24T08:06:58;18.88;;;17.48;;
52692;SDS011;68218;51.012;-1.648;2023-07-24T08:09:23;16.73;;;15.52;;
52692;SDS011;68218;51.012;-1.648;2023-07-24T08:11:49;18.15;;;16.85;;
52692;SDS011;68218;51.012;-1.648;2023-07-24T08:14:16;19.88;;;18.27;;
52692;SDS011;68218;51.012;-1.648;2023-07-24T08:16:41;11.80;;;10.95;;
52692;SDS011;68218;51.012;-1.648;2023-07-24T08:19:07;12.35;;;11.45;;
52692;SDS011;68218;51.012;-1.648;2023-07-24T08:21:32;18.00;;;16.70;;
52692;SDS011;68218;51.012;-1.648;2023-07-24T08:23:58;11.02;;;10.23;;
52692;SDS011;68218;51.012;-1.648;2023-07-24T08:26:24;11.70;;;10.80;;
52692;SDS011;68218;51.012;-1.648;2023-07-24T08:28:51;12.30;;;11.40;;
52692;SDS011;68218;51.012;-1.648;2023-07-24T08:31:17;12.23;;;11.32;;
52692;SDS011;68218;51.012;-1.648;2023-07-24T08:33:42;12.55;;;11.60;;
52692;SDS011;68218;51.012;-1.648;2023-07-24T08:36:08;11.20;;;10.40;;
52692;SDS011;68218;51.012;-1.648;2023-07-24T08:38:34;11.45;;;10.63;;
52692;SDS011;68218;51.012;-1.648;2023-07-24T08:41:10;16.08;;;14.95;;
52692;SDS011;68218;51.012;-1.648;2023-07-24T08:43:38;11.30;;;10.50;;
52692;SDS011;68218;51.012;-1.648;2023-07-24T08:46:05;11.13;;;10.23;;
52692;SDS011;68218;51.012;-1.648;2023-07-24T08:48:32;13.90;;;12.90;;
52692;SDS011;68218;51.012;-1.648;2023-07-24T08:51:01;12.57;;;11.68;;
52692;SDS011;68218;51.012;-1.648;2023-07-24T08:53:30;11.95;;;11.10;;
52692;SDS011;68218;51.012;-1.648;2023-07-24T08:55:57;11.23;;;10.43;;
52692;SDS011;68218;51.012;-1.648;2023-07-24T08:58:24;12.40;;;11.50;;
52692;SDS011;68218;51.012;-1.648;2023-07-24T09:00:50;12.25;;;11.35;;
52692;SDS011;68218;51.012;-1.648;2023-07-24T09:03:17;11.75;;;10.93;;
52692;SDS011;68218;51.012;-1.648;2023-07-24T09:05:44;11.38;;;10.57;;
52692;SDS011;68218;51.012;-1.648;2023-07-24T09:08:09;12.02;;;11.13;;
52692;SDS011;68218;51.012;-1.648;2023-07-24T09:10:35;12.60;;;11.70;;
52692;SDS011;68218;51.012;-1.648;2023-07-24T09:13:00;12.00;;;11.13;;
52692;SDS011;68218;51.012;-1.648;2023-07-24T09:15:29;12.80;;;11.90;;
52692;SDS011;68218;51.012;-1.648;2023-07-24T09:18:14;12.85;;;11.95;;
52692;SDS011;68218;51.012;-1.648;2023-07-24T09:20:42;13.10;;;12.20;;
52692;SDS011;68218;51.012;-1.648;2023-07-24T09:23:08;11.70;;;10.88;;
52692;SDS011;68218;51.012;-1.648;2023-07-24T09:25:35;12.50;;;11.60;;
52692;SDS011;68218;51.012;-1.648;2023-07-24T09:28:08;12.18;;;11.27;;
52692;SDS011;68218;51.012;-1.648;2023-07-24T09:30:35;13.48;;;12.57;;
52692;SDS011;68218;51.012;-1.648;2023-07-24T09:33:00;14.13;;;13.13;;
52692;SDS011;68218;51.012;-1.648;2023-07-24T09:35:26;12.40;;;11.50;;
52692;SDS011;68218;51.012;-1.648;2023-07-24T09:38:09;12.93;;;11.93;;
52692;SDS011;68218;51.012;-1.648;2023-07-24T09:43:15;12.93;;;12.00;;
52692;SDS011;68218;51.012;-1.648;2023-07-24T09:45:41;11.60;;;10.80;;
52692;SDS011;68218;51.012;-1.648;2023-07-24T09:48:07;11.95;;;11.13;;
52692;SDS011;68218;51.012;-1.648;2023-07-24T09:50:36;12.43;;;11.52;;
52692;SDS011;68218;51.012;-1.648;2023-07-24T09:53:02;12.57;;;11.68;;
52692;SDS011;68218;51.012;-1.648;2023-07-24T09:55:32;11.35;;;10.55;;
52692;SDS011;68218;51.012;-1.648;2023-07-24T09:58:03;12.15;;;11.32;;
52692;SDS011;68218;51.012;-1.648;2023-07-24T10:00:30;11.70;;;10.90;;
52692;SDS011;68218;51.012;-1.648;2023-07-24T10:02:56;19.40;;;18.00;;
52692;SDS011;68218;51.012;-1.648;2023-07-24T10:05:22;18.80;;;17.40;;
52692;SDS011;68218;51.012;-1.648;2023-07-24T10:07:48;18.52;;;17.15;;
52692;SDS011;68218;51.012;-1.648;2023-07-24T10:10:15;18.92;;;17.52;;
52692;SDS011;68218;51.012;-1.648;2023-07-24T10:12:40;19.42;;;18.02;;
52692;SDS011;68218;51.012;-1.648;2023-07-24T10:15:06;18.70;;;17.30;;
52692;SDS011;68218;51.012;-1.648;2023-07-24T10:17:36;12.98;;;12.07;;
52692;SDS011;68218;51.012;-1.648;2023-07-24T10:20:06;12.40;;;11.50;;
52692;SDS011;68218;51.012;-1.648;2023-07-24T10:22:33;11.95;;;11.10;;
52692;SDS011;68218;51.012;-1.648;2023-07-24T10:24:59;11.68;;;10.88;;
52692;SDS011;68218;51.012;-1.648;2023-07-24T10:27:25;15.48;;;14.38;;
52692;SDS011;68218;51.012;-1.648;2023-07-24T10:32:27;12.23;;;11.43;;
52692;SDS011;68218;51.012;-1.648;2023-07-24T10:35:05;11.88;;;11.07;;
52692;SDS011;68218;51.012;-1.648;2023-07-24T10:37:34;12.95;;;12.05;;
52692;SDS011;68218;51.012;-1.648;2023-07-24T10:40:01;18.95;;;17.55;;
52692;SDS011;68218;51.012;-1.648;2023-07-24T10:42:28;12.55;;;11.65;;
52692;SDS011;68218;51.012;-1.648;2023-07-24T10:45:07;12.15;;;11.27;;
52692;SDS011;68218;51.012;-1.648;2023-07-24T10:47:34;17.50;;;16.30;;
52692;SDS011;68218;51.012;-1.648;2023-07-24T10:50:00;17.35;;;16.17;;
52692;SDS011;68218;51.012;-1.648;2023-07-24T10:52:31;18.05;;;16.75;;
52692;SDS011;68218;51.012;-1.648;2023-07-24T10:55:00;17.60;;;16.30;;
52692;SDS011;68218;51.012;-1.648;2023-07-24T10:57:29;16.75;;;15.68;;
52692;SDS011;68218;51.012;-1.648;2023-07-24T10:59:55;21.92;;;20.52;;
52692;SDS011;68218;51.012;-1.648;2023-07-24T11:02:21;19.05;;;17.67;;
52692;SDS011;68218;51.012;-1.648;2023-07-24T11:04:46;21.20;;;19.80;;
52692;SDS011;68218;51.012;-1.648;2023-07-24T11:07:12;18.08;;;16.85;;
52692;SDS011;68218;51.012;-1.648;2023-07-24T11:09:38;14.63;;;13.60;;
52692;SDS011;68218;51.012;-1.648;2023-07-24T11:12:12;18.55;;;17.23;;
52692;SDS011;68218;51.012;-1.648;2023-07-24T11:14:46;16.50;;;15.40;;
52692;SDS011;68218;51.012;-1.648;2023-07-24T11:17:15;15.38;;;14.27;;
52692;SDS011;68218;51.012;-1.648;2023-07-24T11:19:40;13.68;;;12.73;;
52692;SDS011;68218;51.012;-1.648;2023-07-24T11:22:06;18.13;;;16.83;;
52692;SDS011;68218;51.012;-1.648;2023-07-24T11:24:32;19.58;;;18.17;;
52692;SDS011;68218;51.012;-1.648;2023-07-24T11:26:58;20.58;;;19.08;;
52692;SDS011;68218;51.012;-1.648;2023-07-24T11:29:23;13.68;;;12.68;;
52692;SDS011;68218;51.012;-1.648;2023-07-24T11:31:55;13.43;;;12.52;;
52692;SDS011;68218;51.012;-1.648;2023-07-24T11:34:21;13.25;;;12.35;;
52692;SDS011;68218;51.012;-1.648;2023-07-24T11:36:47;17.35;;;16.15;;
52692;SDS011;68218;51.012;-1.648;2023-07-24T11:39:13;13.52;;;12.52;;
52692;SDS011;68218;51.012;-1.648;2023-07-24T11:41:46;13.82;;;12.93;;
52692;SDS011;68218;51.012;-1.648;2023-07-24T11:44:12;14.30;;;13.38;;
52692;SDS011;68218;51.012;-1.648;2023-07-24T11:46:41;12.93;;;12.02;;
52692;SDS011;68218;51.012;-1.648;2023-07-24T11:49:08;12.77;;;11.88;;
52692;SDS011;68218;51.012;-1.648;2023-07-24T11:51:36;11.90;;;11.07;;
52692;SDS011;68218;51.012;-1.648;2023-07-24T11:54:08;11.27;;;10.48;;
52692;SDS011;68218;51.012;-1.648;2023-07-24T11:56:36;12.43;;;11.55;;
52692;SDS011;68218;51.012;-1.648;2023-07-24T11:59:12;14.13;;;13.18;;
52692;SDS011;68218;51.012;-1.648;2023-07-24T12:01:38;12.18;;;11.32;;
52692;SDS011;68218;51.012;-1.648;2023-07-24T12:04:04;12.45;;;11.57;;
52692;SDS011;68218;51.012;-1.648;2023-07-24T12:06:32;12.55;;;11.65;;
52692;SDS011;68218;51.012;-1.648;2023-07-24T12:09:04;12.82;;;11.93;;
52692;SDS011;68218;51.012;-1.648;2023-07-24T12:11:30;13.10;;;12.20;;
52692;SDS011;68218;51.012;-1.648;2023-07-24T12:13:56;12.80;;;11.90;;
52692;SDS011;68218;51.012;-1.648;2023-07-24T12:16:22;13.05;;;12.15;;
52692;SDS011;68218;51.012;-1.648;2023-07-24T12:18:47;13.10;;;12.20;;
52692;SDS011;68218;51.012;-1.648;2023-07-24T12:21:13;13.85;;;12.93;;
52692;SDS011;68218;51.012;-1.648;2023-07-24T12:23:38;11.80;;;10.98;;
52692;SDS011;68218;51.012;-1.648;2023-07-24T12:26:04;12.93;;;12.02;;
52692;SDS011;68218;51.012;-1.648;2023-07-24T12:28:29;11.60;;;10.80;;
52692;SDS011;68218;51.012;-1.648;2023-07-24T12:30:55;12.48;;;11.57;;
52692;SDS011;68218;51.012;-1.648;2023-07-24T12:33:20;12.13;;;11.25;;
52692;SDS011;68218;51.012;-1.648;2023-07-24T12:35:48;13.20;;;12.27;;
52692;SDS011;68218;51.012;-1.648;2023-07-24T12:38:14;12.88;;;11.98;;
52692;SDS011;68218;51.012;-1.648;2023-07-24T12:40:40;16.48;;;15.27;;
52692;SDS011;68218;51.012;-1.648;2023-07-24T12:43:05;13.20;;;12.27;;
52692;SDS011;68218;51.012;-1.648;2023-07-24T12:45:31;11.70;;;10.90;;
52692;SDS011;68218;51.012;-1.648;2023-07-24T12:47:56;11.85;;;10.95;;
52692;SDS011;68218;51.012;-1.648;2023-07-24T12:50:22;11.45;;;10.65;;
52692;SDS011;68218;51.012;-1.648;2023-07-24T12:52:48;12.05;;;11.23;;
52692;SDS011;68218;51.012;-1.648;2023-07-24T12:55:13;13.20;;;12.30;;
52692;SDS011;68218;51.012;-1.648;2023-07-24T12:57:39;12.98;;;12.07;;
52692;SDS011;68218;51.012;-1.648;2023-07-24T13:00:05;12.68;;;11.77;;
52692;SDS011;68218;51.012;-1.648;2023-07-24T13:02:31;12.90;;;12.00;;
52692;SDS011;68218;51.012;-1.648;2023-07-24T13:04:57;12.40;;;11.50;;
52692;SDS011;68218;51.012;-1.648;2023-07-24T13:07:22;12.18;;;11.30;;
52692;SDS011;68218;51.012;-1.648;2023-07-24T13:09:47;11.48;;;10.68;;
52692;SDS011;68218;51.012;-1.648;2023-07-24T13:12:13;12.52;;;11.63;;
52692;SDS011;68218;51.012;-1.648;2023-07-24T13:14:38;12.40;;;11.50;;
52692;SDS011;68218;51.012;-1.648;2023-07-24T13:17:04;13.63;;;12.73;;
52692;SDS011;68218;51.012;-1.648;2023-07-24T13:19:30;12.32;;;11.45;;
52692;SDS011;68218;51.012;-1.648;2023-07-24T13:21:56;13.57;;;12.68;;
52692;SDS011;68218;51.012;-1.648;2023-07-24T13:24:22;12.48;;;11.57;;
52692;SDS011;68218;51.012;-1.648;2023-07-24T13:26:47;12.23;;;11.40;;
52692;SDS011;68218;51.012;-1.648;2023-07-24T13:29:13;11.18;;;10.38;;
52692;SDS011;68218;51.012;-1.648;2023-07-24T13:31:38;12.38;;;11.48;;
52692;SDS011;68218;51.012;-1.648;2023-07-24T13:34:05;12.25;;;11.38;;
52692;SDS011;68218;51.012;-1.648;2023-07-24T13:36:31;12.35;;;11.45;;
52692;SDS011;68218;51.012;-1.648;2023-07-24T13:38:56;12.65;;;11.75;;
52692;SDS011;68218;51.012;-1.648;2023-07-24T13:41:21;13.40;;;12.50;;
52692;SDS011;68218;51.012;-1.648;2023-07-24T13:43:47;12.20;;;11.35;;
52692;SDS011;68218;51.012;-1.648;2023-07-24T13:46:13;11.57;;;10.77;;
52692;SDS011;68218;51.012;-1.648;2023-07-24T13:48:38;12.15;;;11.25;;
52692;SDS011;68218;51.012;-1.648;2023-07-24T13:51:03;11.90;;;11.07;;
52692;SDS011;68218;51.012;-1.648;2023-07-24T13:53:29;11.68;;;10.88;;
52692;SDS011;68218;51.012;-1.648;2023-07-24T13:55:54;12.77;;;11.88;;
52692;SDS011;68218;51.012;-1.648;2023-07-24T13:58:20;11.98;;;11.18;;
52692;SDS011;68218;51.012;-1.648;2023-07-24T14:00:45;12.57;;;11.68;;
52692;SDS011;68218;51.012;-1.648;2023-07-24T14:03:11;11.82;;;11.02;;
52692;SDS011;68218;51.012;-1.648;2023-07-24T14:05:36;11.55;;;10.75;;
52692;SDS011;68218;51.012;-1.648;2023-07-24T14:08:02;13.07;;;12.18;;
52692;SDS011;68218;51.012;-1.648;2023-07-24T14:10:27;12.85;;;11.95;;
52692;SDS011;68218;51.012;-1.648;2023-07-24T14:12:53;12.90;;;12.00;;